Time;durP1;ratioP1;P1;durP2;ratioP2;P2;SDS_P1;SDS_P2;PMS_P1;PMS_P2;Temp;Humidity;BMP_temperature;BMP_pressure;BME280_temperature;BME280_humidity;BME280_pressure;Samples;Min_cycle;Max_cycle;Signal;HPM_P1;HPM_P2
2023/06/15 00:00:17;;;;;;;;;;;;;;;20.76;35.25;101338.66;7351796;19;19929;-58
2023/06/15 00:02:42;;;;;;;;;;;;;;;20.71;34.85;101351.34;7349174;19;19925;-57
2023/06/15 00:05:08;;;;;;;;;;;;;;;20.65;34.99;101349.03;7354686;19;19915;-57
2023/06/15 00:07:33;;;;;;;;;;;;;;;20.59;35.22;101357.31;7352323;19;19922;-57
2023/06/15 00:09:58;;;;;;;;;;;;;;;20.53;35.15;101347.03;7348860;19;19955;-58
2023/06/15 00:12:23;;;;;;;;;;;;;;;20.47;35.47;101351.72;7351493;19;20719;-57
2023/06/15 00:14:49;;;;;;;;;;;;;;;20.41;35.16;101349.38;7354190;19;19919;-58
2023/06/15 00:17:14;;;;;;;;;;;;;;;20.36;35.64;101359.38;7354111;19;19919;-58
2023/06/15 00:19:39;;;;;;;;;;;;;;;20.32;35.25;101355.16;7351097;19;19939;-59
2023/06/15 00:22:06;;;;;;;;;;;;;;;20.25;35.35;101347.63;7355533;19;19929;-58
2023/06/15 00:24:31;;;;;;;;;;;;;;;20.20;35.47;101355.81;7354984;19;19933;-57
2023/06/15 00:26:56;;;;;;;;;;;;;;;20.16;35.44;101359.56;7352270;19;20675;-57
2023/06/15 00:29:22;;;;;;;;;;;;;;;20.10;35.58;101355.44;7350381;19;19926;-58
2023/06/15 00:31:47;;;;;;;;;;;;;;;20.05;35.94;101349.50;7351277;19;19922;-58
2023/06/15 00:34:12;;;;;;;;;;;;;;;19.99;35.86;101356.94;7347644;19;19927;-57
2023/06/15 00:36:37;;;;;;;;;;;;;;;19.95;35.71;101350.94;7355086;19;19932;-57
2023/06/15 00:39:03;;;;;;;;;;;;;;;19.89;35.92;101352.09;7350450;19;20462;-57
2023/06/15 00:41:28;;;;;;;;;;;;;;;19.85;35.69;101354.97;7350350;19;19938;-58
2023/06/15 00:43:54;;;;;;;;;;;;;;;19.80;35.64;101355.22;7349309;19;19915;-57
2023/06/15 00:46:19;;;;;;;;;;;;;;;19.75;35.69;101359.88;7354310;19;19931;-58
2023/06/15 00:48:44;;;;;;;;;;;;;;;19.69;35.95;101350.47;7350587;19;19915;-58
2023/06/15 00:51:10;;;;;;;;;;;;;;;19.64;36.04;101347.19;7351687;19;19926;-58
2023/06/15 00:53:37;;;;;;;;;;;;;;;19.60;36.11;101344.75;7351864;19;20596;-58
2023/06/15 00:56:03;;;;;;;;;;;;;;;19.55;36.51;101344.09;7356038;19;19935;-58
2023/06/15 00:58:29;;;;;;;;;;;;;;;19.26;36.51;101309.34;7354672;19;19923;-57
2023/06/15 01:00:54;;;;;;;;;;;;;;;19.45;36.59;101355.16;7347004;19;19939;-58
2023/06/15 01:03:20;;;;;;;;;;;;;;;19.40;36.38;101343.91;7350378;19;19936;-58
2023/06/15 01:05:54;;;;;;;;;;;;;;;19.36;36.40;101347.69;7346886;19;19915;-58
2023/06/15 01:08:22;;;;;;;;;;;;;;;19.32;36.87;101348.75;7349495;19;19925;-58
2023/06/15 01:10:48;;;;;;;;;;;;;;;19.28;36.60;101349.84;7348498;19;19927;-58
2023/06/15 01:13:19;;;;;;;;;;;;;;;19.23;36.45;101346.53;7353024;19;19922;-58
2023/06/15 01:15:44;;;;;;;;;;;;;;;19.20;36.92;101346.69;7351140;19;19972;-58
2023/06/15 01:18:10;;;;;;;;;;;;;;;19.16;36.90;101339.84;7351851;19;19995;-58
2023/06/15 01:20:39;;;;;;;;;;;;;;;19.11;36.68;101348.00;7349989;19;19927;-58
2023/06/15 01:23:21;;;;;;;;;;;;;;;19.07;36.64;101345.56;7352331;19;20473;-58
2023/06/15 01:25:48;;;;;;;;;;;;;;;19.03;36.60;101338.72;7351119;19;19915;-58
2023/06/15 01:28:20;;;;;;;;;;;;;;;18.99;36.78;101339.78;7351732;19;20032;-58
2023/06/15 01:30:50;;;;;;;;;;;;;;;18.92;36.78;101337.44;7343649;19;19939;-58
2023/06/15 01:33:16;;;;;;;;;;;;;;;18.89;36.96;101337.56;7352085;19;19927;-59
2023/06/15 01:35:41;;;;;;;;;;;;;;;18.85;36.92;101335.97;7349857;19;19925;-58
2023/06/15 01:38:07;;;;;;;;;;;;;;;18.80;37.41;101335.34;7348252;19;19933;-58
2023/06/15 01:40:34;;;;;;;;;;;;;;;18.76;37.18;101341.72;7348544;19;19926;-57
2023/06/15 01:43:00;;;;;;;;;;;;;;;18.73;37.00;101336.56;7351173;19;19914;-57
2023/06/15 01:45:26;;;;;;;;;;;;;;;18.69;37.56;101335.00;7350314;19;20669;-57
2023/06/15 01:47:52;;;;;;;;;;;;;;;18.66;37.06;101343.06;7351724;19;19930;-58
2023/06/15 01:50:18;;;;;;;;;;;;;;;18.62;37.08;101344.13;7350194;19;19919;-58
2023/06/15 01:52:43;;;;;;;;;;;;;;;18.56;37.27;101344.41;7351724;19;19919;-58
2023/06/15 01:55:09;;;;;;;;;;;;;;;18.52;37.39;101348.13;7353921;19;19915;-57
2023/06/15 01:57:38;;;;;;;;;;;;;;;18.48;36.92;101346.53;7346368;19;20290;-58
2023/06/15 02:00:04;;;;;;;;;;;;;;;18.42;37.31;101345.88;7353370;19;19955;-58
2023/06/15 02:02:30;;;;;;;;;;;;;;;18.38;37.46;101351.38;7356923;19;19919;-58
2023/06/15 02:04:55;;;;;;;;;;;;;;;18.34;37.08;101350.63;7351770;19;19914;-57
2023/06/15 02:07:21;;;;;;;;;;;;;;;18.30;37.45;101353.53;7356646;19;20340;-58
2023/06/15 02:09:46;;;;;;;;;;;;;;;18.26;37.53;101355.44;7350266;19;19923;-58
2023/06/15 02:12:11;;;;;;;;;;;;;;;18.23;37.82;101347.63;7355317;19;19930;-57
2023/06/15 02:14:36;;;;;;;;;;;;;;;18.20;37.57;101352.19;7355707;19;19976;-57
2023/06/15 02:17:02;;;;;;;;;;;;;;;18.17;38.02;101358.47;7355883;19;19918;-58
2023/06/15 02:19:28;;;;;;;;;;;;;;;18.13;38.08;101348.94;7351555;19;19926;-58
2023/06/15 02:21:53;;;;;;;;;;;;;;;18.10;38.21;101357.03;7356227;19;19923;-57
2023/06/15 02:24:19;;;;;;;;;;;;;;;18.07;37.78;101358.00;7352445;19;19923;-58
2023/06/15 02:26:45;;;;;;;;;;;;;;;18.04;37.65;101354.63;7352597;19;20032;-57
2023/06/15 02:29:11;;;;;;;;;;;;;;;17.99;38.10;101360.13;7353147;19;19964;-58
2023/06/15 02:31:37;;;;;;;;;;;;;;;17.94;37.96;101355.94;7354265;19;19918;-58
2023/06/15 02:34:02;;;;;;;;;;;;;;;17.89;38.21;101359.69;7358244;19;19925;-57
2023/06/15 02:36:28;;;;;;;;;;;;;;;17.85;38.11;101352.81;7357779;19;19915;-57
2023/06/15 02:38:53;;;;;;;;;;;;;;;17.82;37.62;101355.56;7354344;19;20339;-58
2023/06/15 02:41:19;;;;;;;;;;;;;;;17.79;38.05;101353.06;7357889;19;19986;-58
2023/06/15 02:43:44;;;;;;;;;;;;;;;17.74;37.88;101355.03;7352378;19;19956;-58
2023/06/15 02:46:09;;;;;;;;;;;;;;;17.69;38.27;101356.09;7349354;19;19914;-57
2023/06/15 02:48:34;;;;;;;;;;;;;;;17.63;38.26;101351.94;7351031;19;20432;-58
2023/06/15 02:51:00;;;;;;;;;;;;;;;17.60;38.45;101357.38;7356093;19;19934;-57
2023/06/15 02:53:25;;;;;;;;;;;;;;;17.57;38.55;101360.13;7357685;19;19919;-57
2023/06/15 02:55:51;;;;;;;;;;;;;;;17.54;38.46;101357.63;7359354;19;19942;-57
2023/06/15 02:58:19;;;;;;;;;;;;;;;17.51;38.54;101361.22;7354334;19;20681;-58
2023/06/15 03:00:48;;;;;;;;;;;;;;;17.47;38.29;101356.13;7351540;19;19919;-58
2023/06/15 03:03:13;;;;;;;;;;;;;;;17.45;38.60;101358.00;7354891;19;20504;-57
2023/06/15 03:05:39;;;;;;;;;;;;;;;17.41;38.68;101357.25;7351128;19;19945;-57
2023/06/15 03:08:05;;;;;;;;;;;;;;;17.37;38.53;101356.50;7359117;19;20726;-57
2023/06/15 03:10:30;;;;;;;;;;;;;;;17.35;38.63;101355.72;7352645;19;19915;-57
2023/06/15 03:12:55;;;;;;;;;;;;;;;17.31;38.67;101362.03;7357550;19;19915;-58
2023/06/15 03:15:21;;;;;;;;;;;;;;;17.27;38.81;101354.31;7352684;19;19918;-58
2023/06/15 03:17:46;;;;;;;;;;;;;;;17.24;38.89;101360.56;7349835;19;19919;-58
2023/06/15 03:20:11;;;;;;;;;;;;;;;17.21;38.94;101352.78;7332139;19;19927;-57
2023/06/15 03:22:36;;;;;;;;;;;;;;;17.19;39.09;101351.97;7355765;19;19914;-57
2023/06/15 03:25:03;;;;;;;;;;;;;;;17.17;39.26;101350.31;7355995;19;19941;-57
2023/06/15 03:27:29;;;;;;;;;;;;;;;17.14;39.02;101343.38;7351159;19;19922;-59
2023/06/15 03:29:55;;;;;;;;;;;;;;;17.12;39.31;101350.50;7354411;19;20244;-58
2023/06/15 03:32:20;;;;;;;;;;;;;;;17.09;39.39;101350.63;7345060;19;19934;-60
2023/06/15 03:34:46;;;;;;;;;;;;;;;17.08;39.28;101355.06;7355655;19;19927;-59
2023/06/15 03:37:11;;;;;;;;;;;;;;;17.05;39.30;101354.31;7352560;19;19940;-59
2023/06/15 03:39:36;;;;;;;;;;;;;;;17.03;39.51;101350.84;7358024;19;19994;-60
2023/06/15 03:42:02;;;;;;;;;;;;;;;17.01;39.34;101345.63;7357438;19;19915;-60
2023/06/15 03:44:27;;;;;;;;;;;;;;;16.99;39.54;101354.56;7348009;19;19915;-59
2023/06/15 03:46:53;;;;;;;;;;;;;;;16.97;39.48;101351.94;7355284;19;19936;-59
2023/06/15 03:49:18;;;;;;;;;;;;;;;16.95;39.42;101356.44;7355981;19;20628;-60
2023/06/15 03:51:43;;;;;;;;;;;;;;;16.92;39.88;101353.03;7355860;19;19923;-59
2023/06/15 03:54:08;;;;;;;;;;;;;;;16.89;39.73;101359.31;7355949;19;19922;-59
2023/06/15 03:56:34;;;;;;;;;;;;;;;16.86;39.82;101357.63;7352877;19;19914;-59
2023/06/15 03:58:59;;;;;;;;;;;;;;;16.86;39.55;101360.28;7357927;19;19936;-60
2023/06/15 04:01:25;;;;;;;;;;;;;;;16.84;39.56;101359.50;7348815;19;19919;-59
2023/06/15 04:03:50;;;;;;;;;;;;;;;16.82;40.15;101358.66;7357068;19;19923;-60
2023/06/15 04:06:16;;;;;;;;;;;;;;;16.80;40.12;101355.25;7353503;19;20645;-59
2023/06/15 04:08:41;;;;;;;;;;;;;;;16.79;39.95;101353.53;7356700;19;19918;-60
2023/06/15 04:11:06;;;;;;;;;;;;;;;16.77;39.95;101355.34;7355404;19;19950;-59
2023/06/15 04:13:32;;;;;;;;;;;;;;;16.76;40.10;101352.78;7358097;19;20674;-59
2023/06/15 04:15:57;;;;;;;;;;;;;;;16.75;40.19;101353.69;7354829;19;19927;-60
2023/06/15 04:18:23;;;;;;;;;;;;;;;16.72;40.09;101357.31;7357924;19;19935;-59
2023/06/15 04:20:48;;;;;;;;;;;;;;;16.72;40.45;101356.44;7350012;19;19954;-60
2023/06/15 04:23:14;;;;;;;;;;;;;;;16.72;40.39;101356.44;7353363;19;19982;-59
2023/06/15 04:25:40;;;;;;;;;;;;;;;16.70;40.22;101353.84;7353578;19;19922;-59
2023/06/15 04:28:10;;;;;;;;;;;;;;;16.69;40.55;101346.00;7355864;19;20550;-60
2023/06/15 04:30:37;;;;;;;;;;;;;;;16.69;40.57;101357.41;7355480;19;19929;-60
2023/06/15 04:33:04;;;;;;;;;;;;;;;16.69;40.58;101353.91;7354834;19;19927;-59
2023/06/15 04:35:31;;;;;;;;;;;;;;;16.67;40.24;101353.94;7350003;19;20327;-60
2023/06/15 04:37:59;;;;;;;;;;;;;;;16.66;40.02;101357.50;7354315;19;19923;-60
2023/06/15 04:40:25;;;;;;;;;;;;;;;16.66;39.91;101362.78;7351576;19;19939;-59
2023/06/15 04:42:50;;;;;;;;;;;;;;;16.67;40.12;101364.50;7359396;19;19922;-60
2023/06/15 04:45:15;;;;;;;;;;;;;;;16.66;40.30;101368.06;7357730;19;19931;-60
2023/06/15 04:47:42;;;;;;;;;;;;;;;16.67;40.27;101369.75;7363534;19;19923;-62
2023/06/15 04:50:07;;;;;;;;;;;;;;;16.67;40.94;101367.13;7359649;19;19946;-59
2023/06/15 04:52:32;;;;;;;;;;;;;;;16.69;40.77;101367.09;7358923;19;20662;-60
2023/06/15 04:54:58;;;;;;;;;;;;;;;16.69;40.54;101377.63;7358863;19;19915;-60
2023/06/15 04:57:23;;;;;;;;;;;;;;;16.70;40.27;101380.22;7362486;19;19923;-59
2023/06/15 04:59:48;;;;;;;;;;;;;;;16.71;40.72;101376.69;7357515;19;19926;-60
2023/06/15 05:02:13;;;;;;;;;;;;;;;16.71;40.90;101379.31;7360124;19;20466;-58
2023/06/15 05:04:39;;;;;;;;;;;;;;;16.72;40.63;101378.41;7360419;19;20230;-60
2023/06/15 05:07:04;;;;;;;;;;;;;;;16.75;40.84;101393.25;7359925;19;19943;-60
2023/06/15 05:09:30;;;;;;;;;;;;;;;16.76;40.74;101395.84;7354374;19;19926;-59
2023/06/15 05:11:55;;;;;;;;;;;;;;;16.78;40.99;101387.88;7359174;19;19926;-59
2023/06/15 05:14:21;;;;;;;;;;;;;;;16.80;41.19;101389.53;7355097;19;19923;-59
2023/06/15 05:16:46;;;;;;;;;;;;;;;16.81;41.14;101396.53;7362515;19;19923;-60
2023/06/15 05:19:11;;;;;;;;;;;;;;;16.84;41.30;101392.94;7360451;19;20376;-59
2023/06/15 05:21:37;;;;;;;;;;;;;;;16.85;41.38;101395.50;7361218;19;19937;-60
2023/06/15 05:24:03;;;;;;;;;;;;;;;16.89;41.05;101400.66;7356579;19;19932;-59
2023/06/15 05:26:28;;;;;;;;;;;;;;;16.91;41.33;101396.19;7354750;19;20819;-60
2023/06/15 05:28:53;;;;;;;;;;;;;;;16.94;41.22;101398.72;7353578;19;19923;-60
2023/06/15 05:31:18;;;;;;;;;;;;;;;16.97;41.41;101402.06;7359544;19;20405;-60
2023/06/15 05:33:44;;;;;;;;;;;;;;;16.66;41.50;101346.94;7362067;19;19931;-59
2023/06/15 05:36:09;;;;;;;;;;;;;;;17.03;41.52;101403.63;7352122;19;19925;-60
2023/06/15 05:38:35;;;;;;;;;;;;;;;17.07;41.41;101406.09;7360309;19;19934;-59
2023/06/15 05:41:00;;;;;;;;;;;;;;;17.10;41.52;101402.47;7356423;19;19911;-60
2023/06/15 05:43:26;;;;;;;;;;;;;;;17.14;41.17;101401.44;7357060;19;20418;-59
2023/06/15 05:45:51;;;;;;;;;;;;;;;17.18;40.58;101407.44;7357585;19;19945;-59
2023/06/15 05:48:16;;;;;;;;;;;;;;;17.21;40.44;101400.28;7359911;19;19927;-60
2023/06/15 05:50:41;;;;;;;;;;;;;;;17.24;40.87;101400.16;7360630;19;19921;-59
2023/06/15 05:53:07;;;;;;;;;;;;;;;17.27;40.82;101400.03;7353602;19;19929;-59
2023/06/15 05:55:33;;;;;;;;;;;;;;;17.31;40.65;101409.56;7358360;19;20006;-59
2023/06/15 05:57:58;;;;;;;;;;;;;;;17.34;40.41;101403.31;7347419;19;19919;-60
2023/06/15 06:00:25;;;;;;;;;;;;;;;17.38;40.48;101402.25;7357009;19;20652;-60
2023/06/15 06:02:51;;;;;;;;;;;;;;;17.41;40.08;101398.63;7358363;19;19939;-60
2023/06/15 06:05:16;;;;;;;;;;;;;;;17.44;40.67;101409.09;7357974;19;19919;-60
2023/06/15 06:07:45;;;;;;;;;;;;;;;17.46;39.87;101407.22;7359090;19;20588;-59
2023/06/15 06:10:10;;;;;;;;;;;;;;;17.49;40.73;101407.13;7358202;19;19932;-60
2023/06/15 06:12:35;;;;;;;;;;;;;;;17.50;40.99;101403.56;7359022;19;19922;-60
2023/06/15 06:15:00;;;;;;;;;;;;;;;17.52;41.12;101412.25;7343730;19;19964;-60
2023/06/15 06:17:26;;;;;;;;;;;;;;;17.53;40.81;101408.69;7334487;19;19919;-60
2023/06/15 06:19:51;;;;;;;;;;;;;;;17.55;40.85;101413.00;7350078;19;19936;-59
2023/06/15 06:22:17;;;;;;;;;;;;;;;17.57;40.75;101408.50;7354352;19;19927;-60
2023/06/15 06:24:42;;;;;;;;;;;;;;;17.60;41.14;101407.53;7354349;19;19915;-60
2023/06/15 06:27:07;;;;;;;;;;;;;;;17.64;40.86;101417.06;7354148;19;19935;-60
2023/06/15 06:29:33;;;;;;;;;;;;;;;17.69;41.04;101420.38;7354892;19;19923;-60
2023/06/15 06:31:58;;;;;;;;;;;;;;;17.73;40.86;101416.69;7356134;19;19926;-59
2023/06/15 06:34:23;;;;;;;;;;;;;;;17.77;41.03;101423.59;7354105;19;19919;-58
2023/06/15 06:36:48;;;;;;;;;;;;;;;17.81;41.02;101419.91;7349786;19;19910;-59
2023/06/15 06:39:14;;;;;;;;;;;;;;;17.85;41.14;101418.84;7355808;19;19942;-59
2023/06/15 06:41:39;;;;;;;;;;;;;;;17.58;41.39;101375.03;7353670;19;19926;-60
2023/06/15 06:44:04;;;;;;;;;;;;;;;17.97;40.96;101416.63;7356823;19;19926;-60
2023/06/15 06:46:30;;;;;;;;;;;;;;;18.02;41.29;101420.78;7354715;19;19927;-60
2023/06/15 06:48:55;;;;;;;;;;;;;;;18.09;41.01;101424.00;7354216;19;19923;-59
2023/06/15 06:51:20;;;;;;;;;;;;;;;18.14;41.14;101422.88;7355361;19;19926;-60
2023/06/15 06:53:46;;;;;;;;;;;;;;;18.21;41.18;101417.38;7359191;19;19919;-60
2023/06/15 06:56:12;;;;;;;;;;;;;;;18.27;41.39;101425.88;7354267;19;20524;-60
2023/06/15 06:58:37;;;;;;;;;;;;;;;18.33;41.48;101407.09;7357399;19;20354;-60
2023/06/15 07:01:02;;;;;;;;;;;;;;;18.42;41.26;101417.28;7351111;19;19967;-59
2023/06/15 07:03:28;;;;;;;;;;;;;;;18.48;41.18;101413.50;7351861;19;19933;-60
2023/06/15 07:05:53;;;;;;;;;;;;;;;18.55;41.37;101411.44;7353957;19;19930;-60
2023/06/15 07:08:20;;;;;;;;;;;;;;;18.63;41.23;101417.25;7353841;19;19930;-59
2023/06/15 07:10:45;;;;;;;;;;;;;;;18.71;41.34;101425.75;7355679;19;19926;-59
2023/06/15 07:13:11;;;;;;;;;;;;;;;18.80;41.50;101424.44;7352109;19;19935;-60
2023/06/15 07:15:36;;;;;;;;;;;;;;;18.87;41.61;101416.19;7351564;19;19911;-59
2023/06/15 07:18:01;;;;;;;;;;;;;;;18.97;41.66;101418.41;7352977;19;20256;-59
2023/06/15 07:20:26;;;;;;;;;;;;;;;19.05;41.59;101417.09;7356859;19;19926;-60
2023/06/15 07:22:52;;;;;;;;;;;;;;;19.13;41.58;101422.06;7345471;19;19915;-60
2023/06/15 07:25:17;;;;;;;;;;;;;;;19.22;41.66;101429.56;7352324;19;19919;-61
2023/06/15 07:27:42;;;;;;;;;;;;;;;19.31;41.54;101428.25;7356220;19;19915;-60
2023/06/15 07:30:08;;;;;;;;;;;;;;;19.40;41.52;101430.47;7355861;19;20407;-61
2023/06/15 07:32:33;;;;;;;;;;;;;;;19.49;41.25;101426.53;7354367;19;19966;-59
2023/06/15 07:34:58;;;;;;;;;;;;;;;19.56;41.75;101428.78;7350350;19;19926;-60
2023/06/15 07:37:24;;;;;;;;;;;;;;;19.66;41.50;101429.25;7353357;19;19919;-60
2023/06/15 07:39:49;;;;;;;;;;;;;;;19.74;41.39;101428.88;7352785;19;20010;-60
2023/06/15 07:42:14;;;;;;;;;;;;;;;19.82;41.34;101435.53;7346897;19;19914;-60
2023/06/15 07:44:40;;;;;;;;;;;;;;;19.90;41.37;101433.31;7346001;19;19994;-60
2023/06/15 07:47:07;;;;;;;;;;;;;;;20.01;41.46;101437.22;7356297;19;19915;-60
2023/06/15 07:49:32;;;;;;;;;;;;;;;20.09;41.49;101437.72;7357796;19;20256;-60
2023/06/15 07:51:58;;;;;;;;;;;;;;;20.18;41.64;101437.25;7356982;19;19947;-60
2023/06/15 07:54:23;;;;;;;;;;;;;;;20.28;41.85;101440.31;7352821;19;19950;-60
2023/06/15 07:56:48;;;;;;;;;;;;;;;20.36;41.90;101444.25;7357231;19;19986;-60
2023/06/15 07:59:13;;;;;;;;;;;;;;;20.45;41.50;101451.75;7356024;19;19919;-60
2023/06/15 08:01:39;;;;;;;;;;;;;;;20.54;41.85;101454.91;7356875;19;19971;-60
2023/06/15 08:04:04;;;;;;;;;;;;;;;20.61;41.68;101445.66;7356506;19;19938;-60
2023/06/15 08:06:30;;;;;;;;;;;;;;;20.68;41.57;101447.03;7354170;19;19943;-60
2023/06/15 08:08:55;;;;;;;;;;;;;;;20.75;41.66;101443.13;7356715;19;20386;-60
2023/06/15 08:11:21;;;;;;;;;;;;;;;20.82;41.35;101448.97;7354135;19;20359;-60
2023/06/15 08:13:46;;;;;;;;;;;;;;;20.89;41.67;101453.88;7354142;19;19950;-60
2023/06/15 08:16:11;;;;;;;;;;;;;;;20.96;41.64;101447.28;7357797;19;20764;-60
2023/06/15 08:18:36;;;;;;;;;;;;;;;21.04;41.22;101451.34;7363278;19;19929;-60
2023/06/15 08:21:02;;;;;;;;;;;;;;;21.12;41.28;101451.75;7364108;19;20643;-60
2023/06/15 08:23:28;;;;;;;;;;;;;;;21.18;41.69;101454.06;7360019;19;19930;-60
2023/06/15 08:25:53;;;;;;;;;;;;;;;21.24;41.55;101449.31;7362138;19;19926;-60
2023/06/15 08:28:19;;;;;;;;;;;;;;;21.32;41.54;101448.88;7363724;19;19911;-60
2023/06/15 08:30:44;;;;;;;;;;;;;;;21.39;41.34;101447.63;7363552;19;20276;-60
2023/06/15 08:33:10;;;;;;;;;;;;;;;21.46;41.14;101451.63;7362956;19;20519;-60
2023/06/15 08:35:35;;;;;;;;;;;;;;;21.55;41.45;101454.72;7358421;19;20527;-60
2023/06/15 08:38:01;;;;;;;;;;;;;;;21.62;41.06;101458.75;7361753;19;19940;-60
2023/06/15 08:40:26;;;;;;;;;;;;;;;21.68;41.36;101458.38;7362730;19;19947;-60
2023/06/15 08:42:52;;;;;;;;;;;;;;;21.73;40.54;101454.50;7361488;19;20010;-61
2023/06/15 08:45:18;;;;;;;;;;;;;;;21.80;40.78;101459.50;7358874;19;19919;-60
2023/06/15 08:47:43;;;;;;;;;;;;;;;21.85;40.82;101452.97;7363614;19;20006;-60
2023/06/15 08:50:09;;;;;;;;;;;;;;;21.88;41.27;101452.78;7357620;19;19931;-60
2023/06/15 08:52:36;;;;;;;;;;;;;;;21.94;40.84;101456.88;7362399;19;19919;-60
2023/06/15 08:55:02;;;;;;;;;;;;;;;21.98;40.88;101451.28;7359535;19;19986;-60
2023/06/15 08:57:28;;;;;;;;;;;;;;;22.04;40.91;101442.09;7363282;19;19943;-60
2023/06/15 08:59:55;;;;;;;;;;;;;;;22.10;40.79;101451.50;7360840;19;20329;-60
2023/06/15 09:02:21;;;;;;;;;;;;;;;22.16;40.65;101452.06;7361306;19;19918;-60
2023/06/15 09:04:51;;;;;;;;;;;;;;;22.24;41.03;101448.94;7362324;19;19923;-61
2023/06/15 09:07:20;;;;;;;;;;;;;;;22.31;41.00;101444.97;7358754;19;19927;-59
2023/06/15 09:10:04;;;;;;;;;;;;;;;22.39;41.22;101448.00;7358611;19;19919;-61
2023/06/15 09:12:29;;;;;;;;;;;;;;;22.47;41.01;101443.09;7362122;19;19926;-61
2023/06/15 09:14:55;;;;;;;;;;;;;;;22.54;40.67;101441.75;7360609;19;20599;-60
2023/06/15 09:17:26;;;;;;;;;;;;;;;22.62;41.14;101443.13;7360680;19;19929;-60
2023/06/15 09:19:51;;;;;;;;;;;;;;;22.69;40.66;101442.63;7359980;19;19935;-60
2023/06/15 09:22:16;;;;;;;;;;;;;;;22.79;41.17;101442.91;7361777;19;19923;-61
2023/06/15 09:24:45;;;;;;;;;;;;;;;22.89;40.72;101444.09;7359935;19;20445;-60
2023/06/15 09:27:17;;;;;;;;;;;;;;;22.98;40.98;101440.84;7357782;19;19918;-60
2023/06/15 09:30:00;;;;;;;;;;;;;;;22.88;40.89;101401.53;7361066;19;19934;-60
2023/06/15 09:32:27;;;;;;;;;;;;;;;23.25;41.26;101438.22;7362238;19;19923;-60
2023/06/15 09:34:59;;;;;;;;;;;;;;;23.43;40.93;101440.69;7359499;19;19935;-59
2023/06/15 09:37:27;;;;;;;;;;;;;;;23.65;40.66;101441.00;7361400;19;19936;-60
2023/06/15 09:39:53;;;;;;;;;;;;;;;23.90;40.88;101445.56;7360941;19;19943;-61
2023/06/15 09:42:23;;;;;;;;;;;;;;;24.16;40.86;101445.63;7359263;19;19923;-60
2023/06/15 09:44:53;;;;;;;;;;;;;;;24.45;40.76;101452.53;7355859;19;19930;-60
2023/06/15 09:47:18;;;;;;;;;;;;;;;24.73;40.93;101451.44;7362021;19;20002;-61
2023/06/15 09:49:46;;;;;;;;;;;;;;;25.00;40.67;101448.66;7360423;19;20011;-61
2023/06/15 09:52:11;;;;;;;;;;;;;;;25.29;40.78;101448.38;7354931;19;19918;-61
2023/06/15 09:54:38;;;;;;;;;;;;;;;25.59;40.68;101446.13;7359762;19;19947;-61
2023/06/15 09:57:04;;;;;;;;;;;;;;;25.91;40.39;101450.97;7359561;19;19929;-61
2023/06/15 09:59:29;;;;;;;;;;;;;;;26.24;40.50;101452.88;7361828;19;19918;-61
2023/06/15 10:01:55;;;;;;;;;;;;;;;26.59;40.44;101450.16;7354889;19;19911;-61
2023/06/15 10:04:24;;;;;;;;;;;;;;;26.98;40.53;101457.88;7359935;19;19932;-61
2023/06/15 10:06:51;;;;;;;;;;;;;;;27.33;40.45;101453.22;7355701;19;19942;-61
2023/06/15 10:09:19;;;;;;;;;;;;;;;27.68;40.35;101453.00;7359271;19;19955;-61
2023/06/15 10:11:45;;;;;;;;;;;;;;;28.06;40.59;101459.72;7358172;19;20402;-61
2023/06/15 10:14:27;;;;;;;;;;;;;;;28.44;40.13;101456.47;7358549;19;19957;-61
2023/06/15 10:16:57;;;;;;;;;;;;;;;28.86;40.17;101456.41;7360760;19;19915;-61
2023/06/15 10:19:23;;;;;;;;;;;;;;;29.23;39.50;101452.31;7358804;19;20327;-62
2023/06/15 10:21:49;;;;;;;;;;;;;;;29.56;39.30;101454.69;7356161;19;19927;-61
2023/06/15 10:24:16;;;;;;;;;;;;;;;29.81;39.17;101447.03;7360014;19;20005;-61
2023/06/15 10:26:42;;;;;;;;;;;;;;;29.98;38.79;101454.41;7359536;19;20041;-60
2023/06/15 10:29:12;;;;;;;;;;;;;;;30.05;38.47;101452.81;7360754;19;19931;-60
2023/06/15 10:31:42;;;;;;;;;;;;;;;30.09;37.85;101456.94;7360125;19;19948;-60
2023/06/15 10:34:11;;;;;;;;;;;;;;;30.09;37.58;101462.31;7358160;19;19926;-61
2023/06/15 10:36:41;;;;;;;;;;;;;;;30.08;37.85;101466.00;7358454;19;20474;-61
2023/06/15 10:39:25;;;;;;;;;;;;;;;30.04;37.72;101459.22;7358015;19;20694;-60
2023/06/15 10:41:56;;;;;;;;;;;;;;;30.04;37.88;101459.22;7360169;19;19963;-61
2023/06/15 10:44:30;;;;;;;;;;;;;;;29.79;37.52;101408.63;7358089;19;19915;-61
2023/06/15 10:47:04;;;;;;;;;;;;;;;30.12;37.11;101463.88;7358364;19;20679;-61
2023/06/15 10:49:31;;;;;;;;;;;;;;;30.16;36.94;101462.63;7359783;19;19994;-61
2023/06/15 10:51:56;;;;;;;;;;;;;;;30.17;36.55;101465.19;7358555;19;19942;-61
2023/06/15 10:54:22;;;;;;;;;;;;;;;30.16;36.87;101463.50;7359613;19;19918;-60
2023/06/15 10:56:49;;;;;;;;;;;;;;;30.16;36.67;101470.69;7356406;19;19947;-61
2023/06/15 10:59:14;;;;;;;;;;;;;;;30.21;37.07;101458.53;7360640;19;19929;-61
2023/06/15 11:01:41;;;;;;;;;;;;;;;30.36;37.32;101460.75;7356179;19;19923;-61
2023/06/15 11:04:25;;;;;;;;;;;;;;;30.61;37.45;101462.81;7358774;19;19940;-61
2023/06/15 11:06:57;;;;;;;;;;;;;;;30.99;36.96;101469.09;7358434;19;20192;-61
2023/06/15 11:09:24;;;;;;;;;;;;;;;31.40;37.50;101466.91;7356160;19;20518;-61
2023/06/15 11:11:50;;;;;;;;;;;;;;;31.86;37.38;101460.47;7356549;19;19930;-61
2023/06/15 11:14:18;;;;;;;;;;;;;;;32.37;37.19;101474.25;7357153;19;19927;-62
2023/06/15 11:16:44;;;;;;;;;;;;;;;32.89;36.95;101474.22;7357795;19;19990;-61
2023/06/15 11:19:12;;;;;;;;;;;;;;;33.26;36.84;101442.28;7357571;19;19990;-61
2023/06/15 11:21:40;;;;;;;;;;;;;;;33.99;36.25;101465.13;7357376;19;19979;-61
2023/06/15 11:24:05;;;;;;;;;;;;;;;34.51;36.44;101472.88;7355449;19;19927;-61
2023/06/15 11:26:31;;;;;;;;;;;;;;;35.02;35.58;101476.13;7350462;19;19981;-61
2023/06/15 11:29:01;;;;;;;;;;;;;;;35.49;34.76;101475.25;7354118;19;20358;-61
2023/06/15 11:31:26;;;;;;;;;;;;;;;36.02;35.05;101473.53;7355223;19;19945;-59
2023/06/15 11:33:51;;;;;;;;;;;;;;;36.46;33.83;101467.38;7356880;19;19927;-61
2023/06/15 11:36:18;;;;;;;;;;;;;;;36.87;33.55;101474.03;7352072;19;20749;-61
2023/06/15 11:38:43;;;;;;;;;;;;;;;37.32;34.54;101466.66;7352145;19;19919;-61
2023/06/15 11:41:10;;;;;;;;;;;;;;;37.72;32.89;101460.81;7356116;19;20319;-61
2023/06/15 11:43:42;;;;;;;;;;;;;;;38.10;32.86;101459.50;7355807;19;19982;-61
2023/06/15 11:46:12;;;;;;;;;;;;;;;38.51;32.03;101460.66;7355975;19;19953;-61
2023/06/15 11:48:37;;;;;;;;;;;;;;;38.90;32.71;101455.44;7355917;19;19922;-61
2023/06/15 11:51:06;;;;;;;;;;;;;;;39.21;30.78;101456.84;7359796;19;19914;-61
2023/06/15 11:53:33;;;;;;;;;;;;;;;39.50;30.83;101460.28;7369724;19;19922;-61
2023/06/15 11:55:58;;;;;;;;;;;;;;;39.77;30.12;101456.56;7362944;19;19941;-61
2023/06/15 11:58:23;;;;;;;;;;;;;;;40.04;29.43;101465.59;7366236;19;20482;-61
2023/06/15 12:00:49;;;;;;;;;;;;;;;40.31;29.50;101457.44;7369658;19;20294;-61
2023/06/15 12:03:15;;;;;;;;;;;;;;;40.60;29.30;101461.59;7370180;19;19922;-61
2023/06/15 12:05:41;;;;;;;;;;;;;;;40.86;29.42;101461.53;7370314;19;19946;-61
2023/06/15 12:08:06;;;;;;;;;;;;;;;41.10;29.26;101468.16;7368980;19;19926;-61
2023/06/15 12:10:35;;;;;;;;;;;;;;;41.33;27.60;101464.06;7369653;19;19911;-61
2023/06/15 12:13:01;;;;;;;;;;;;;;;41.56;28.12;101461.59;7369192;19;19923;-61
2023/06/15 12:15:26;;;;;;;;;;;;;;;41.75;27.35;101457.03;7367389;19;20755;-61
2023/06/15 12:17:53;;;;;;;;;;;;;;;41.94;27.46;101453.34;7365413;19;19918;-61
2023/06/15 12:20:18;;;;;;;;;;;;;;;42.10;27.03;101448.34;7365419;19;19980;-61
2023/06/15 12:22:44;;;;;;;;;;;;;;;42.30;26.99;101456.41;7373765;19;19953;-61
2023/06/15 12:25:10;;;;;;;;;;;;;;;42.48;26.33;101454.53;7376417;19;19943;-61
2023/06/15 12:27:42;;;;;;;;;;;;;;;42.71;26.02;101453.03;7374180;19;19922;-62
2023/06/15 12:30:11;;;;;;;;;;;;;;;42.94;25.90;101461.41;7374119;19;20353;-61